sensor_id;sensor_type;location;lat;lon;timestamp;P1;durP1;ratioP1;P2;durP2;ratioP2
49540;SDS011;35432;43.566;1.398;2023-02-28T00:01:21;8.23;;;3.38;;
49540;SDS011;35432;43.566;1.398;2023-02-28T00:03:47;15.10;;;6.53;;
49540;SDS011;35432;43.566;1.398;2023-02-28T00:06:12;7.90;;;3.40;;
49540;SDS011;35432;43.566;1.398;2023-02-28T00:08:38;6.37;;;2.93;;
49540;SDS011;35432;43.566;1.398;2023-02-28T00:11:08;9.20;;;3.45;;
49540;SDS011;35432;43.566;1.398;2023-02-28T00:13:36;7.95;;;3.20;;
49540;SDS011;35432;43.566;1.398;2023-02-28T00:16:03;9.60;;;4.17;;
49540;SDS011;35432;43.566;1.398;2023-02-28T00:18:31;11.15;;;4.72;;
49540;SDS011;35432;43.566;1.398;2023-02-28T00:20:57;10.10;;;4.22;;
49540;SDS011;35432;43.566;1.398;2023-02-28T00:23:23;9.70;;;3.83;;
49540;SDS011;35432;43.566;1.398;2023-02-28T00:25:48;8.82;;;4.00;;
49540;SDS011;35432;43.566;1.398;2023-02-28T00:28:14;8.80;;;4.07;;
49540;SDS011;35432;43.566;1.398;2023-02-28T00:30:40;8.33;;;3.40;;
49540;SDS011;35432;43.566;1.398;2023-02-28T00:33:05;9.20;;;3.80;;
49540;SDS011;35432;43.566;1.398;2023-02-28T00:35:31;8.73;;;3.78;;
49540;SDS011;35432;43.566;1.398;2023-02-28T00:37:56;10.07;;;3.87;;
49540;SDS011;35432;43.566;1.398;2023-02-28T00:40:22;10.60;;;4.53;;
49540;SDS011;35432;43.566;1.398;2023-02-28T00:42:47;7.80;;;3.63;;
49540;SDS011;35432;43.566;1.398;2023-02-28T00:45:13;8.40;;;3.92;;
49540;SDS011;35432;43.566;1.398;2023-02-28T00:50:38;8.88;;;3.47;;
49540;SDS011;35432;43.566;1.398;2023-02-28T00:53:03;11.50;;;4.30;;
49540;SDS011;35432;43.566;1.398;2023-02-28T00:55:29;9.80;;;4.33;;
49540;SDS011;35432;43.566;1.398;2023-02-28T00:57:54;9.97;;;4.07;;
49540;SDS011;35432;43.566;1.398;2023-02-28T01:00:21;10.17;;;4.20;;
49540;SDS011;35432;43.566;1.398;2023-02-28T01:02:46;9.30;;;3.67;;
49540;SDS011;35432;43.566;1.398;2023-02-28T01:05:12;9.03;;;4.20;;
49540;SDS011;35432;43.566;1.398;2023-02-28T01:07:37;8.27;;;3.67;;
49540;SDS011;35432;43.566;1.398;2023-02-28T01:10:03;9.43;;;3.90;;
49540;SDS011;35432;43.566;1.398;2023-02-28T01:12:30;9.05;;;4.05;;
49540;SDS011;35432;43.566;1.398;2023-02-28T01:14:57;9.82;;;3.92;;
49540;SDS011;35432;43.566;1.398;2023-02-28T01:17:22;8.43;;;3.90;;
49540;SDS011;35432;43.566;1.398;2023-02-28T01:19:48;8.80;;;3.80;;
49540;SDS011;35432;43.566;1.398;2023-02-28T01:22:13;8.57;;;3.50;;
49540;SDS011;35432;43.566;1.398;2023-02-28T01:24:39;14.53;;;6.17;;
49540;SDS011;35432;43.566;1.398;2023-02-28T01:27:04;8.68;;;4.68;;
49540;SDS011;35432;43.566;1.398;2023-02-28T01:29:30;11.10;;;4.70;;
49540;SDS011;35432;43.566;1.398;2023-02-28T01:31:55;10.70;;;4.03;;
49540;SDS011;35432;43.566;1.398;2023-02-28T01:34:22;8.38;;;3.28;;
49540;SDS011;35432;43.566;1.398;2023-02-28T01:36:47;7.70;;;3.50;;
49540;SDS011;35432;43.566;1.398;2023-02-28T01:39:12;8.03;;;3.63;;
49540;SDS011;35432;43.566;1.398;2023-02-28T01:41:38;8.98;;;3.80;;
49540;SDS011;35432;43.566;1.398;2023-02-28T01:44:55;9.27;;;3.77;;
49540;SDS011;35432;43.566;1.398;2023-02-28T01:47:11;9.45;;;3.70;;
49540;SDS011;35432;43.566;1.398;2023-02-28T01:49:37;8.50;;;3.80;;
49540;SDS011;35432;43.566;1.398;2023-02-28T01:52:03;9.87;;;4.27;;
49540;SDS011;35432;43.566;1.398;2023-02-28T01:54:29;8.98;;;3.80;;
49540;SDS011;35432;43.566;1.398;2023-02-28T01:59:41;8.57;;;3.57;;
49540;SDS011;35432;43.566;1.398;2023-02-28T02:02:17;9.57;;;3.75;;
49540;SDS011;35432;43.566;1.398;2023-02-28T02:04:55;8.77;;;3.60;;
49540;SDS011;35432;43.566;1.398;2023-02-28T02:07:26;11.38;;;3.35;;
49540;SDS011;35432;43.566;1.398;2023-02-28T02:10:02;7.13;;;3.35;;
49540;SDS011;35432;43.566;1.398;2023-02-28T02:12:56;6.37;;;3.30;;
49540;SDS011;35432;43.566;1.398;2023-02-28T02:15:40;8.23;;;3.38;;
49540;SDS011;35432;43.566;1.398;2023-02-28T02:21:21;8.65;;;3.38;;
49540;SDS011;35432;43.566;1.398;2023-02-28T02:26:50;11.07;;;3.50;;
49540;SDS011;35432;43.566;1.398;2023-02-28T02:34:41;8.35;;;3.90;;
49540;SDS011;35432;43.566;1.398;2023-02-28T02:40:16;7.87;;;3.60;;
49540;SDS011;35432;43.566;1.398;2023-02-28T02:42:49;9.13;;;3.70;;
49540;SDS011;35432;43.566;1.398;2023-02-28T02:45:34;8.32;;;3.75;;
49540;SDS011;35432;43.566;1.398;2023-02-28T02:48:06;6.93;;;3.15;;
49540;SDS011;35432;43.566;1.398;2023-02-28T02:50:38;8.73;;;3.63;;
49540;SDS011;35432;43.566;1.398;2023-02-28T02:53:08;9.93;;;3.60;;
49540;SDS011;35432;43.566;1.398;2023-02-28T02:55:37;7.97;;;3.50;;
49540;SDS011;35432;43.566;1.398;2023-02-28T02:58:10;7.60;;;3.47;;
49540;SDS011;35432;43.566;1.398;2023-02-28T03:00:41;7.88;;;3.50;;
49540;SDS011;35432;43.566;1.398;2023-02-28T03:03:11;8.02;;;3.97;;
49540;SDS011;35432;43.566;1.398;2023-02-28T03:05:42;9.97;;;3.87;;
49540;SDS011;35432;43.566;1.398;2023-02-28T03:08:12;8.70;;;3.78;;
49540;SDS011;35432;43.566;1.398;2023-02-28T03:10:39;8.98;;;4.05;;
49540;SDS011;35432;43.566;1.398;2023-02-28T03:13:11;9.23;;;4.13;;
49540;SDS011;35432;43.566;1.398;2023-02-28T03:15:50;8.87;;;3.80;;
49540;SDS011;35432;43.566;1.398;2023-02-28T03:24:21;8.45;;;3.80;;
49540;SDS011;35432;43.566;1.398;2023-02-28T03:26:58;7.70;;;3.50;;
49540;SDS011;35432;43.566;1.398;2023-02-28T03:35:00;11.10;;;3.90;;
49540;SDS011;35432;43.566;1.398;2023-02-28T03:37:32;8.57;;;4.20;;
49540;SDS011;35432;43.566;1.398;2023-02-28T03:40:05;8.15;;;4.30;;
49540;SDS011;35432;43.566;1.398;2023-02-28T03:42:34;9.80;;;4.20;;
49540;SDS011;35432;43.566;1.398;2023-02-28T03:45:08;10.00;;;4.35;;
49540;SDS011;35432;43.566;1.398;2023-02-28T03:47:41;10.43;;;4.00;;
49540;SDS011;35432;43.566;1.398;2023-02-28T03:50:37;9.00;;;4.05;;
49540;SDS011;35432;43.566;1.398;2023-02-28T03:53:11;9.13;;;3.78;;
49540;SDS011;35432;43.566;1.398;2023-02-28T03:55:45;10.67;;;4.30;;
49540;SDS011;35432;43.566;1.398;2023-02-28T04:00:40;9.00;;;4.20;;
49540;SDS011;35432;43.566;1.398;2023-02-28T04:03:11;9.15;;;4.47;;
49540;SDS011;35432;43.566;1.398;2023-02-28T04:05:55;8.77;;;4.20;;
49540;SDS011;35432;43.566;1.398;2023-02-28T04:08:22;10.30;;;4.80;;
49540;SDS011;35432;43.566;1.398;2023-02-28T04:10:50;10.40;;;4.57;;
49540;SDS011;35432;43.566;1.398;2023-02-28T04:13:22;8.75;;;4.55;;
49540;SDS011;35432;43.566;1.398;2023-02-28T04:15:48;11.00;;;4.93;;
49540;SDS011;35432;43.566;1.398;2023-02-28T04:18:13;14.03;;;5.10;;
49540;SDS011;35432;43.566;1.398;2023-02-28T04:20:38;9.20;;;4.87;;
49540;SDS011;35432;43.566;1.398;2023-02-28T04:23:04;8.85;;;4.57;;
49540;SDS011;35432;43.566;1.398;2023-02-28T04:25:29;10.60;;;5.23;;
49540;SDS011;35432;43.566;1.398;2023-02-28T04:27:55;9.90;;;5.00;;
49540;SDS011;35432;43.566;1.398;2023-02-28T04:30:20;11.03;;;5.20;;
49540;SDS011;35432;43.566;1.398;2023-02-28T04:32:46;10.63;;;5.30;;
49540;SDS011;35432;43.566;1.398;2023-02-28T04:35:11;12.13;;;4.32;;
49540;SDS011;35432;43.566;1.398;2023-02-28T04:37:36;10.73;;;5.00;;
49540;SDS011;35432;43.566;1.398;2023-02-28T04:40:02;11.87;;;5.33;;
49540;SDS011;35432;43.566;1.398;2023-02-28T04:42:29;10.77;;;5.43;;
49540;SDS011;35432;43.566;1.398;2023-02-28T04:45:00;11.35;;;5.68;;
49540;SDS011;35432;43.566;1.398;2023-02-28T04:47:29;10.98;;;5.60;;
49540;SDS011;35432;43.566;1.398;2023-02-28T04:49:54;12.13;;;5.43;;
49540;SDS011;35432;43.566;1.398;2023-02-28T04:52:20;11.03;;;5.50;;
49540;SDS011;35432;43.566;1.398;2023-02-28T04:54:45;12.50;;;5.40;;
49540;SDS011;35432;43.566;1.398;2023-02-28T04:57:10;10.03;;;5.53;;
49540;SDS011;35432;43.566;1.398;2023-02-28T04:59:36;11.57;;;5.73;;
49540;SDS011;35432;43.566;1.398;2023-02-28T05:02:01;12.57;;;5.33;;
49540;SDS011;35432;43.566;1.398;2023-02-28T05:04:31;14.95;;;5.85;;
49540;SDS011;35432;43.566;1.398;2023-02-28T05:07:00;13.30;;;5.57;;
49540;SDS011;35432;43.566;1.398;2023-02-28T05:09:27;11.05;;;6.00;;
49540;SDS011;35432;43.566;1.398;2023-02-28T05:11:53;15.15;;;6.35;;
49540;SDS011;35432;43.566;1.398;2023-02-28T05:14:19;13.33;;;6.40;;
49540;SDS011;35432;43.566;1.398;2023-02-28T05:16:44;13.47;;;6.07;;
49540;SDS011;35432;43.566;1.398;2023-02-28T05:19:09;12.90;;;6.50;;
49540;SDS011;35432;43.566;1.398;2023-02-28T05:21:36;13.25;;;6.35;;
49540;SDS011;35432;43.566;1.398;2023-02-28T05:24:22;14.95;;;6.78;;
49540;SDS011;35432;43.566;1.398;2023-02-28T05:26:51;12.87;;;6.67;;
49540;SDS011;35432;43.566;1.398;2023-02-28T05:29:17;13.60;;;5.90;;
49540;SDS011;35432;43.566;1.398;2023-02-28T05:31:43;14.63;;;7.13;;
49540;SDS011;35432;43.566;1.398;2023-02-28T05:34:08;14.87;;;7.23;;
49540;SDS011;35432;43.566;1.398;2023-02-28T05:36:36;14.30;;;6.28;;
49540;SDS011;35432;43.566;1.398;2023-02-28T05:39:03;16.17;;;7.30;;
49540;SDS011;35432;43.566;1.398;2023-02-28T05:41:29;17.40;;;7.07;;
49540;SDS011;35432;43.566;1.398;2023-02-28T05:43:55;16.63;;;7.97;;
49540;SDS011;35432;43.566;1.398;2023-02-28T05:46:22;15.00;;;7.17;;
49540;SDS011;35432;43.566;1.398;2023-02-28T05:48:47;16.20;;;7.50;;
49540;SDS011;35432;43.566;1.398;2023-02-28T05:51:13;16.07;;;7.33;;
49540;SDS011;35432;43.566;1.398;2023-02-28T05:53:38;15.70;;;6.80;;
49540;SDS011;35432;43.566;1.398;2023-02-28T05:56:04;15.17;;;7.10;;
49540;SDS011;35432;43.566;1.398;2023-02-28T05:58:29;14.60;;;7.17;;
49540;SDS011;35432;43.566;1.398;2023-02-28T06:00:59;14.63;;;7.00;;
49540;SDS011;35432;43.566;1.398;2023-02-28T06:03:25;16.33;;;6.75;;
49540;SDS011;35432;43.566;1.398;2023-02-28T06:05:51;16.25;;;7.90;;
49540;SDS011;35432;43.566;1.398;2023-02-28T06:08:17;16.70;;;7.37;;
49540;SDS011;35432;43.566;1.398;2023-02-28T06:10:43;15.23;;;7.22;;
49540;SDS011;35432;43.566;1.398;2023-02-28T06:13:09;19.17;;;7.30;;
49540;SDS011;35432;43.566;1.398;2023-02-28T06:15:34;15.07;;;7.37;;
49540;SDS011;35432;43.566;1.398;2023-02-28T06:18:00;18.42;;;7.18;;
49540;SDS011;35432;43.566;1.398;2023-02-28T06:20:26;15.67;;;7.27;;
49540;SDS011;35432;43.566;1.398;2023-02-28T06:22:55;15.13;;;7.07;;
49540;SDS011;35432;43.566;1.398;2023-02-28T06:25:23;17.73;;;8.70;;
49540;SDS011;35432;43.566;1.398;2023-02-28T06:27:49;15.05;;;7.68;;
49540;SDS011;35432;43.566;1.398;2023-02-28T06:30:14;17.73;;;8.00;;
49540;SDS011;35432;43.566;1.398;2023-02-28T06:32:39;15.97;;;7.60;;
49540;SDS011;35432;43.566;1.398;2023-02-28T06:35:05;17.35;;;7.97;;
49540;SDS011;35432;43.566;1.398;2023-02-28T06:37:31;13.87;;;7.77;;
49540;SDS011;35432;43.566;1.398;2023-02-28T06:39:57;22.27;;;10.15;;
49540;SDS011;35432;43.566;1.398;2023-02-28T06:42:23;21.90;;;9.57;;
49540;SDS011;35432;43.566;1.398;2023-02-28T06:44:56;15.65;;;8.45;;
49540;SDS011;35432;43.566;1.398;2023-02-28T06:47:23;20.95;;;8.45;;
49540;SDS011;35432;43.566;1.398;2023-02-28T06:49:49;17.95;;;8.20;;
49540;SDS011;35432;43.566;1.398;2023-02-28T06:52:15;18.40;;;8.83;;
49540;SDS011;35432;43.566;1.398;2023-02-28T06:54:41;17.50;;;8.48;;
49540;SDS011;35432;43.566;1.398;2023-02-28T06:57:06;18.10;;;7.10;;
49540;SDS011;35432;43.566;1.398;2023-02-28T06:59:32;17.63;;;6.90;;
49540;SDS011;35432;43.566;1.398;2023-02-28T07:01:57;15.32;;;6.32;;
49540;SDS011;35432;43.566;1.398;2023-02-28T07:04:23;14.80;;;6.70;;
49540;SDS011;35432;43.566;1.398;2023-02-28T07:06:48;14.18;;;6.85;;
49540;SDS011;35432;43.566;1.398;2023-02-28T07:09:14;13.80;;;6.83;;
49540;SDS011;35432;43.566;1.398;2023-02-28T07:11:39;14.87;;;6.50;;
49540;SDS011;35432;43.566;1.398;2023-02-28T07:14:05;14.55;;;6.32;;
49540;SDS011;35432;43.566;1.398;2023-02-28T07:16:31;14.43;;;6.07;;
49540;SDS011;35432;43.566;1.398;2023-02-28T07:18:57;12.70;;;5.85;;
49540;SDS011;35432;43.566;1.398;2023-02-28T07:21:23;12.43;;;5.77;;
49540;SDS011;35432;43.566;1.398;2023-02-28T07:23:49;10.87;;;5.67;;
49540;SDS011;35432;43.566;1.398;2023-02-28T07:26:16;13.32;;;5.70;;
49540;SDS011;35432;43.566;1.398;2023-02-28T07:28:44;13.85;;;5.95;;
49540;SDS011;35432;43.566;1.398;2023-02-28T07:31:11;13.60;;;6.05;;
49540;SDS011;35432;43.566;1.398;2023-02-28T07:33:38;11.37;;;5.50;;
49540;SDS011;35432;43.566;1.398;2023-02-28T07:36:05;11.38;;;5.60;;
49540;SDS011;35432;43.566;1.398;2023-02-28T07:38:40;13.27;;;5.82;;
49540;SDS011;35432;43.566;1.398;2023-02-28T07:41:06;14.18;;;5.70;;
49540;SDS011;35432;43.566;1.398;2023-02-28T07:43:33;17.13;;;5.73;;
49540;SDS011;35432;43.566;1.398;2023-02-28T07:46:05;12.57;;;5.97;;
49540;SDS011;35432;43.566;1.398;2023-02-28T07:48:33;13.35;;;6.03;;
49540;SDS011;35432;43.566;1.398;2023-02-28T07:50:58;10.93;;;5.67;;
49540;SDS011;35432;43.566;1.398;2023-02-28T07:53:25;12.63;;;5.78;;
49540;SDS011;35432;43.566;1.398;2023-02-28T07:55:54;10.20;;;5.00;;
49540;SDS011;35432;43.566;1.398;2023-02-28T07:58:21;10.13;;;5.05;;
49540;SDS011;35432;43.566;1.398;2023-02-28T08:00:46;11.25;;;4.90;;
49540;SDS011;35432;43.566;1.398;2023-02-28T08:03:12;9.13;;;4.77;;
49540;SDS011;35432;43.566;1.398;2023-02-28T08:05:40;11.57;;;4.83;;
49540;SDS011;35432;43.566;1.398;2023-02-28T08:08:06;8.55;;;4.63;;
49540;SDS011;35432;43.566;1.398;2023-02-28T08:10:32;9.45;;;4.35;;
49540;SDS011;35432;43.566;1.398;2023-02-28T08:12:58;8.93;;;4.55;;
49540;SDS011;35432;43.566;1.398;2023-02-28T08:15:23;8.07;;;4.37;;
49540;SDS011;35432;43.566;1.398;2023-02-28T08:17:49;8.97;;;4.57;;
49540;SDS011;35432;43.566;1.398;2023-02-28T08:20:14;8.63;;;4.40;;
49540;SDS011;35432;43.566;1.398;2023-02-28T08:22:40;9.07;;;4.30;;
49540;SDS011;35432;43.566;1.398;2023-02-28T08:25:06;7.60;;;4.35;;
49540;SDS011;35432;43.566;1.398;2023-02-28T08:27:32;7.72;;;4.53;;
49540;SDS011;35432;43.566;1.398;2023-02-28T08:29:58;9.33;;;4.73;;
49540;SDS011;35432;43.566;1.398;2023-02-28T08:32:23;8.63;;;4.60;;
49540;SDS011;35432;43.566;1.398;2023-02-28T08:34:48;8.27;;;4.03;;
49540;SDS011;35432;43.566;1.398;2023-02-28T08:37:14;9.20;;;4.60;;
49540;SDS011;35432;43.566;1.398;2023-02-28T08:39:39;8.17;;;4.80;;
49540;SDS011;35432;43.566;1.398;2023-02-28T08:42:05;8.03;;;4.90;;
49540;SDS011;35432;43.566;1.398;2023-02-28T08:44:30;7.80;;;4.20;;
49540;SDS011;35432;43.566;1.398;2023-02-28T08:46:56;7.40;;;4.87;;
49540;SDS011;35432;43.566;1.398;2023-02-28T08:49:21;6.80;;;4.40;;
49540;SDS011;35432;43.566;1.398;2023-02-28T08:51:46;8.82;;;4.95;;
49540;SDS011;35432;43.566;1.398;2023-02-28T08:54:12;7.13;;;3.80;;
49540;SDS011;35432;43.566;1.398;2023-02-28T08:56:38;6.13;;;3.77;;
49540;SDS011;35432;43.566;1.398;2023-02-28T08:59:04;8.27;;;4.57;;
49540;SDS011;35432;43.566;1.398;2023-02-28T09:01:30;8.80;;;3.83;;
49540;SDS011;35432;43.566;1.398;2023-02-28T09:03:56;6.13;;;3.42;;
49540;SDS011;35432;43.566;1.398;2023-02-28T09:06:23;7.28;;;4.30;;
49540;SDS011;35432;43.566;1.398;2023-02-28T09:08:50;9.27;;;4.63;;
49540;SDS011;35432;43.566;1.398;2023-02-28T09:11:16;6.15;;;3.60;;
49540;SDS011;35432;43.566;1.398;2023-02-28T09:13:44;5.90;;;3.80;;
49540;SDS011;35432;43.566;1.398;2023-02-28T09:16:11;7.25;;;4.07;;
49540;SDS011;35432;43.566;1.398;2023-02-28T09:18:38;6.40;;;3.95;;
49540;SDS011;35432;43.566;1.398;2023-02-28T09:21:05;6.53;;;3.70;;
49540;SDS011;35432;43.566;1.398;2023-02-28T09:23:32;8.02;;;4.25;;
49540;SDS011;35432;43.566;1.398;2023-02-28T09:25:57;7.68;;;4.30;;
49540;SDS011;35432;43.566;1.398;2023-02-28T09:28:23;6.77;;;3.90;;
49540;SDS011;35432;43.566;1.398;2023-02-28T09:30:49;8.40;;;4.57;;
49540;SDS011;35432;43.566;1.398;2023-02-28T09:33:17;7.70;;;4.40;;
49540;SDS011;35432;43.566;1.398;2023-02-28T09:35:45;8.27;;;4.50;;
49540;SDS011;35432;43.566;1.398;2023-02-28T09:38:11;7.30;;;4.00;;
49540;SDS011;35432;43.566;1.398;2023-02-28T09:40:37;6.43;;;4.15;;
49540;SDS011;35432;43.566;1.398;2023-02-28T09:43:11;6.93;;;4.17;;
49540;SDS011;35432;43.566;1.398;2023-02-28T09:45:41;6.65;;;4.10;;
49540;SDS011;35432;43.566;1.398;2023-02-28T09:48:20;7.15;;;4.40;;
49540;SDS011;35432;43.566;1.398;2023-02-28T09:50:50;7.20;;;4.88;;
49540;SDS011;35432;43.566;1.398;2023-02-28T09:53:23;7.90;;;4.40;;
49540;SDS011;35432;43.566;1.398;2023-02-28T09:55:54;7.87;;;4.27;;
49540;SDS011;35432;43.566;1.398;2023-02-28T09:58:26;5.97;;;3.90;;
49540;SDS011;35432;43.566;1.398;2023-02-28T10:06:44;9.13;;;4.70;;
49540;SDS011;35432;43.566;1.398;2023-02-28T10:09:16;7.37;;;4.07;;
49540;SDS011;35432;43.566;1.398;2023-02-28T10:11:47;7.30;;;3.90;;
49540;SDS011;35432;43.566;1.398;2023-02-28T10:14:21;7.20;;;3.67;;
49540;SDS011;35432;43.566;1.398;2023-02-28T10:22:36;7.87;;;3.90;;
49540;SDS011;35432;43.566;1.398;2023-02-28T10:25:29;8.30;;;4.05;;
49540;SDS011;35432;43.566;1.398;2023-02-28T10:27:58;7.32;;;3.92;;
49540;SDS011;35432;43.566;1.398;2023-02-28T10:30:47;9.10;;;3.85;;
49540;SDS011;35432;43.566;1.398;2023-02-28T10:33:21;10.85;;;4.40;;
49540;SDS011;35432;43.566;1.398;2023-02-28T10:35:47;8.77;;;3.93;;
49540;SDS011;35432;43.566;1.398;2023-02-28T10:38:18;7.88;;;3.65;;
49540;SDS011;35432;43.566;1.398;2023-02-28T10:40:49;7.90;;;3.92;;
49540;SDS011;35432;43.566;1.398;2023-02-28T10:45:52;10.07;;;5.03;;
49540;SDS011;35432;43.566;1.398;2023-02-28T10:48:30;7.67;;;3.83;;
49540;SDS011;35432;43.566;1.398;2023-02-28T10:50:59;8.52;;;4.40;;
49540;SDS011;35432;43.566;1.398;2023-02-28T10:53:28;10.32;;;4.35;;
49540;SDS011;35432;43.566;1.398;2023-02-28T11:03:45;8.18;;;4.50;;
49540;SDS011;35432;43.566;1.398;2023-02-28T11:08:52;7.07;;;4.00;;
49540;SDS011;35432;43.566;1.398;2023-02-28T11:11:25;8.27;;;4.50;;
49540;SDS011;35432;43.566;1.398;2023-02-28T11:13:54;9.40;;;4.40;;
49540;SDS011;35432;43.566;1.398;2023-02-28T11:16:21;10.27;;;4.93;;
49540;SDS011;35432;43.566;1.398;2023-02-28T11:19:00;9.55;;;4.43;;
49540;SDS011;35432;43.566;1.398;2023-02-28T11:21:29;10.45;;;4.60;;
49540;SDS011;35432;43.566;1.398;2023-02-28T11:26:46;8.60;;;4.78;;
49540;SDS011;35432;43.566;1.398;2023-02-28T11:29:20;10.32;;;5.05;;
49540;SDS011;35432;43.566;1.398;2023-02-28T11:34:34;9.40;;;4.95;;
49540;SDS011;35432;43.566;1.398;2023-02-28T11:37:03;7.93;;;4.30;;
49540;SDS011;35432;43.566;1.398;2023-02-28T11:39:30;10.80;;;5.22;;
49540;SDS011;35432;43.566;1.398;2023-02-28T11:56:01;9.50;;;5.43;;
49540;SDS011;35432;43.566;1.398;2023-02-28T12:07:21;9.75;;;4.78;;
49540;SDS011;35432;43.566;1.398;2023-02-28T12:28:43;9.73;;;4.93;;
49540;SDS011;35432;43.566;1.398;2023-02-28T12:31:16;10.23;;;5.07;;
49540;SDS011;35432;43.566;1.398;2023-02-28T12:34:20;7.95;;;4.60;;
49540;SDS011;35432;43.566;1.398;2023-02-28T12:36:41;8.60;;;4.63;;
49540;SDS011;35432;43.566;1.398;2023-02-28T12:39:30;10.18;;;5.57;;
49540;SDS011;35432;43.566;1.398;2023-02-28T12:42:41;11.10;;;5.70;;
49540;SDS011;35432;43.566;1.398;2023-02-28T12:44:54;9.23;;;4.63;;
49540;SDS011;35432;43.566;1.398;2023-02-28T12:47:23;8.65;;;4.57;;
49540;SDS011;35432;43.566;1.398;2023-02-28T12:50:00;8.97;;;4.87;;
49540;SDS011;35432;43.566;1.398;2023-02-28T12:52:40;9.73;;;4.72;;
49540;SDS011;35432;43.566;1.398;2023-02-28T13:09:11;9.63;;;4.18;;
49540;SDS011;35432;43.566;1.398;2023-02-28T13:19:26;9.38;;;4.60;;
49540;SDS011;35432;43.566;1.398;2023-02-28T13:21:54;9.93;;;4.75;;
49540;SDS011;35432;43.566;1.398;2023-02-28T13:24:37;8.70;;;4.78;;
49540;SDS011;35432;43.566;1.398;2023-02-28T13:29:34;8.50;;;4.68;;
49540;SDS011;35432;43.566;1.398;2023-02-28T13:34:35;10.85;;;5.43;;
49540;SDS011;35432;43.566;1.398;2023-02-28T13:45:30;8.25;;;4.40;;
49540;SDS011;35432;43.566;1.398;2023-02-28T13:47:38;10.30;;;4.68;;
49540;SDS011;35432;43.566;1.398;2023-02-28T14:07:08;7.50;;;3.63;;
49540;SDS011;35432;43.566;1.398;2023-02-28T14:09:41;9.67;;;4.50;;
49540;SDS011;35432;43.566;1.398;2023-02-28T14:17:57;8.23;;;3.45;;
49540;SDS011;35432;43.566;1.398;2023-02-28T14:20:25;8.40;;;4.53;;
49540;SDS011;35432;43.566;1.398;2023-02-28T14:34:05;11.40;;;3.92;;
49540;SDS011;35432;43.566;1.398;2023-02-28T14:36:37;6.50;;;3.40;;
49540;SDS011;35432;43.566;1.398;2023-02-28T14:39:06;8.43;;;3.70;;
49540;SDS011;35432;43.566;1.398;2023-02-28T14:41:37;7.43;;;3.88;;
49540;SDS011;35432;43.566;1.398;2023-02-28T14:46:50;7.78;;;3.50;;
49540;SDS011;35432;43.566;1.398;2023-02-28T14:51:46;9.68;;;4.40;;
49540;SDS011;35432;43.566;1.398;2023-02-28T14:54:15;11.60;;;4.70;;
49540;SDS011;35432;43.566;1.398;2023-02-28T14:56:47;7.80;;;3.72;;
49540;SDS011;35432;43.566;1.398;2023-02-28T14:59:25;8.30;;;3.90;;
49540;SDS011;35432;43.566;1.398;2023-02-28T15:04:39;8.98;;;3.90;;
49540;SDS011;35432;43.566;1.398;2023-02-28T15:07:07;9.68;;;4.90;;
49540;SDS011;35432;43.566;1.398;2023-02-28T15:09:42;9.45;;;4.55;;
49540;SDS011;35432;43.566;1.398;2023-02-28T15:12:07;11.67;;;5.40;;
49540;SDS011;35432;43.566;1.398;2023-02-28T15:14:42;9.32;;;4.32;;
49540;SDS011;35432;43.566;1.398;2023-02-28T15:17:16;9.10;;;4.22;;
49540;SDS011;35432;43.566;1.398;2023-02-28T15:19:48;8.77;;;4.07;;
49540;SDS011;35432;43.566;1.398;2023-02-28T15:22:18;10.90;;;5.10;;
49540;SDS011;35432;43.566;1.398;2023-02-28T15:24:54;9.80;;;4.65;;
49540;SDS011;35432;43.566;1.398;2023-02-28T15:27:29;9.82;;;4.45;;
49540;SDS011;35432;43.566;1.398;2023-02-28T15:30:07;10.57;;;4.50;;
49540;SDS011;35432;43.566;1.398;2023-02-28T15:38:52;11.15;;;5.03;;
49540;SDS011;35432;43.566;1.398;2023-02-28T15:41:29;9.18;;;4.30;;
49540;SDS011;35432;43.566;1.398;2023-02-28T15:44:28;8.52;;;4.32;;
49540;SDS011;35432;43.566;1.398;2023-02-28T15:49:28;9.98;;;4.50;;
49540;SDS011;35432;43.566;1.398;2023-02-28T15:51:59;10.73;;;4.63;;
49540;SDS011;35432;43.566;1.398;2023-02-28T15:54:29;8.02;;;3.70;;
49540;SDS011;35432;43.566;1.398;2023-02-28T15:57:11;9.60;;;4.07;;
49540;SDS011;35432;43.566;1.398;2023-02-28T15:59:42;8.67;;;4.23;;
49540;SDS011;35432;43.566;1.398;2023-02-28T16:02:22;9.43;;;4.25;;
49540;SDS011;35432;43.566;1.398;2023-02-28T16:07:33;9.57;;;4.40;;
49540;SDS011;35432;43.566;1.398;2023-02-28T16:10:00;10.63;;;4.57;;
49540;SDS011;35432;43.566;1.398;2023-02-28T16:12:27;9.33;;;4.57;;
49540;SDS011;35432;43.566;1.398;2023-02-28T16:14:58;11.35;;;4.20;;
49540;SDS011;35432;43.566;1.398;2023-02-28T16:17:28;10.32;;;4.63;;
49540;SDS011;35432;43.566;1.398;2023-02-28T16:19:56;10.45;;;5.18;;
49540;SDS011;35432;43.566;1.398;2023-02-28T16:22:22;8.65;;;4.18;;
49540;SDS011;35432;43.566;1.398;2023-02-28T16:24:48;8.37;;;4.13;;
49540;SDS011;35432;43.566;1.398;2023-02-28T16:27:21;8.38;;;3.88;;
49540;SDS011;35432;43.566;1.398;2023-02-28T16:29:55;9.83;;;4.60;;
49540;SDS011;35432;43.566;1.398;2023-02-28T16:32:21;9.10;;;4.25;;
49540;SDS011;35432;43.566;1.398;2023-02-28T16:34:46;13.03;;;5.00;;
49540;SDS011;35432;43.566;1.398;2023-02-28T16:37:13;8.47;;;4.40;;
49540;SDS011;35432;43.566;1.398;2023-02-28T16:39:42;9.98;;;4.28;;
49540;SDS011;35432;43.566;1.398;2023-02-28T16:42:10;15.85;;;5.50;;
49540;SDS011;35432;43.566;1.398;2023-02-28T16:44:47;10.95;;;5.60;;
49540;SDS011;35432;43.566;1.398;2023-02-28T16:47:13;9.50;;;4.63;;
49540;SDS011;35432;43.566;1.398;2023-02-28T16:49:39;9.65;;;4.57;;
49540;SDS011;35432;43.566;1.398;2023-02-28T16:52:07;8.80;;;4.43;;
49540;SDS011;35432;43.566;1.398;2023-02-28T16:54:33;9.65;;;5.20;;
49540;SDS011;35432;43.566;1.398;2023-02-28T16:56:58;12.23;;;4.90;;
49540;SDS011;35432;43.566;1.398;2023-02-28T16:59:24;9.18;;;4.18;;
49540;SDS011;35432;43.566;1.398;2023-02-28T17:01:52;10.15;;;4.95;;
49540;SDS011;35432;43.566;1.398;2023-02-28T17:04:18;9.43;;;4.57;;
49540;SDS011;35432;43.566;1.398;2023-02-28T17:06:44;12.38;;;4.93;;
49540;SDS011;35432;43.566;1.398;2023-02-28T17:09:20;9.45;;;4.35;;
49540;SDS011;35432;43.566;1.398;2023-02-28T17:11:47;9.70;;;3.90;;
49540;SDS011;35432;43.566;1.398;2023-02-28T17:14:14;9.73;;;3.97;;
49540;SDS011;35432;43.566;1.398;2023-02-28T17:16:40;11.85;;;4.10;;
49540;SDS011;35432;43.566;1.398;2023-02-28T17:19:09;11.57;;;4.38;;
49540;SDS011;35432;43.566;1.398;2023-02-28T17:21:38;9.75;;;3.75;;
49540;SDS011;35432;43.566;1.398;2023-02-28T17:24:04;9.13;;;3.83;;
49540;SDS011;35432;43.566;1.398;2023-02-28T17:26:30;10.90;;;5.57;;
49540;SDS011;35432;43.566;1.398;2023-02-28T17:28:56;10.13;;;4.03;;
49540;SDS011;35432;43.566;1.398;2023-02-28T17:31:22;10.60;;;4.63;;
49540;SDS011;35432;43.566;1.398;2023-02-28T17:33:48;7.78;;;4.07;;
49540;SDS011;35432;43.566;1.398;2023-02-28T17:36:15;10.90;;;4.93;;
49540;SDS011;35432;43.566;1.398;2023-02-28T17:38:42;13.25;;;4.78;;
49540;SDS011;35432;43.566;1.398;2023-02-28T17:41:10;12.38;;;5.40;;
49540;SDS011;35432;43.566;1.398;2023-02-28T17:43:36;12.30;;;4.20;;
49540;SDS011;35432;43.566;1.398;2023-02-28T17:46:01;10.52;;;4.32;;
49540;SDS011;35432;43.566;1.398;2023-02-28T17:48:27;10.90;;;4.30;;
49540;SDS011;35432;43.566;1.398;2023-02-28T17:50:53;10.52;;;4.97;;
49540;SDS011;35432;43.566;1.398;2023-02-28T17:53:19;9.63;;;4.57;;
49540;SDS011;35432;43.566;1.398;2023-02-28T17:55:47;10.90;;;4.85;;
49540;SDS011;35432;43.566;1.398;2023-02-28T17:58:13;12.25;;;5.38;;
49540;SDS011;35432;43.566;1.398;2023-02-28T18:00:39;10.57;;;4.90;;
49540;SDS011;35432;43.566;1.398;2023-02-28T18:03:04;10.23;;;4.43;;
49540;SDS011;35432;43.566;1.398;2023-02-28T18:05:30;9.27;;;4.47;;
49540;SDS011;35432;43.566;1.398;2023-02-28T18:07:56;11.30;;;5.00;;